Blaenau Ffestiniog, United Kingdom
Current Conditions -  °F | °C
As of 11:50 PM on Monday 22 Dec 2014 (Local Time) from EGOV Reporting Station
Haze Haze  
Wind Chill: 11°   Ceiling: 2500
Heat Index: 11°   Visibility: 4mi
Dew Point: 10°   Wind: 26mph
Humidity: 94%   Direction: 220°SW
Pressure: 29.85"   Gusts: NA
Location:  52.99°N, 3.94°W
Report Text: EGOV 222350Z AUTO 22023KT 6000 HZ BKN025/// BKN033/// 11/10 Q1011
Loading
Personal Weather Stations






























Interactive Weather Map New forecast layout! Learn more

10-Day Weather Forecast

Advertisements
Track Severe Weather on mobile